sensor_id;sensor_type;location;lat;lon;timestamp;temperature;humidity
67870;DHT22;54673;52.262;6.830;2023-12-04T00:00:03;1.30;99.90
67870;DHT22;54673;52.262;6.830;2023-12-04T00:02:28;1.30;99.90
67870;DHT22;54673;52.262;6.830;2023-12-04T00:04:54;1.20;99.90
67870;DHT22;54673;52.262;6.830;2023-12-04T00:07:19;1.30;99.90
67870;DHT22;54673;52.262;6.830;2023-12-04T00:09:45;1.30;99.90
67870;DHT22;54673;52.262;6.830;2023-12-04T00:12:11;1.30;99.90
67870;DHT22;54673;52.262;6.830;2023-12-04T00:14:37;1.30;99.90
67870;DHT22;54673;52.262;6.830;2023-12-04T00:17:02;1.20;99.90
67870;DHT22;54673;52.262;6.830;2023-12-04T00:19:28;1.30;99.90
67870;DHT22;54673;52.262;6.830;2023-12-04T00:21:53;1.30;99.90
67870;DHT22;54673;52.262;6.830;2023-12-04T00:24:19;1.20;99.90
67870;DHT22;54673;52.262;6.830;2023-12-04T00:26:44;1.30;99.90
67870;DHT22;54673;52.262;6.830;2023-12-04T00:29:10;1.30;99.90
67870;DHT22;54673;52.262;6.830;2023-12-04T00:31:36;1.30;99.90
67870;DHT22;54673;52.262;6.830;2023-12-04T00:34:02;1.20;99.90
67870;DHT22;54673;52.262;6.830;2023-12-04T00:36:27;1.30;99.90
67870;DHT22;54673;52.262;6.830;2023-12-04T00:38:53;1.30;99.90
67870;DHT22;54673;52.262;6.830;2023-12-04T00:41:19;1.30;99.90
67870;DHT22;54673;52.262;6.830;2023-12-04T00:43:44;1.20;99.90
67870;DHT22;54673;52.262;6.830;2023-12-04T00:46:10;1.20;99.90
67870;DHT22;54673;52.262;6.830;2023-12-04T00:48:35;1.30;99.90
67870;DHT22;54673;52.262;6.830;2023-12-04T00:51:01;1.20;99.90
67870;DHT22;54673;52.262;6.830;2023-12-04T00:53:26;1.20;99.90
67870;DHT22;54673;52.262;6.830;2023-12-04T00:55:52;1.20;99.90
67870;DHT22;54673;52.262;6.830;2023-12-04T00:58:18;1.30;99.90
67870;DHT22;54673;52.262;6.830;2023-12-04T01:00:43;1.30;99.90
67870;DHT22;54673;52.262;6.830;2023-12-04T01:03:09;1.30;99.90
67870;DHT22;54673;52.262;6.830;2023-12-04T01:05:34;1.30;99.90
67870;DHT22;54673;52.262;6.830;2023-12-04T01:08:00;1.30;99.90
67870;DHT22;54673;52.262;6.830;2023-12-04T01:10:25;1.30;99.90
67870;DHT22;54673;52.262;6.830;2023-12-04T01:12:51;1.30;99.90
67870;DHT22;54673;52.262;6.830;2023-12-04T01:15:16;1.30;99.90
67870;DHT22;54673;52.262;6.830;2023-12-04T01:17:42;1.30;99.90
67870;DHT22;54673;52.262;6.830;2023-12-04T01:20:08;1.30;99.90
67870;DHT22;54673;52.262;6.830;2023-12-04T01:22:34;1.30;99.90
67870;DHT22;54673;52.262;6.830;2023-12-04T01:24:59;1.30;99.90
67870;DHT22;54673;52.262;6.830;2023-12-04T01:27:25;1.30;99.90
67870;DHT22;54673;52.262;6.830;2023-12-04T01:29:50;1.30;99.90
67870;DHT22;54673;52.262;6.830;2023-12-04T01:32:16;1.30;99.90
67870;DHT22;54673;52.262;6.830;2023-12-04T01:34:42;1.30;99.90
67870;DHT22;54673;52.262;6.830;2023-12-04T01:37:07;1.30;99.90
67870;DHT22;54673;52.262;6.830;2023-12-04T01:39:33;1.30;99.90
67870;DHT22;54673;52.262;6.830;2023-12-04T01:41:58;1.30;99.90
67870;DHT22;54673;52.262;6.830;2023-12-04T01:44:24;1.30;99.90
67870;DHT22;54673;52.262;6.830;2023-12-04T01:46:49;1.30;99.90
67870;DHT22;54673;52.262;6.830;2023-12-04T01:49:15;1.30;99.90
67870;DHT22;54673;52.262;6.830;2023-12-04T01:51:42;1.30;99.90
67870;DHT22;54673;52.262;6.830;2023-12-04T01:54:08;1.30;99.90
67870;DHT22;54673;52.262;6.830;2023-12-04T01:56:34;1.30;99.90
67870;DHT22;54673;52.262;6.830;2023-12-04T01:59:01;1.30;99.90
67870;DHT22;54673;52.262;6.830;2023-12-04T02:01:27;1.30;99.90
67870;DHT22;54673;52.262;6.830;2023-12-04T02:03:54;1.30;99.90
67870;DHT22;54673;52.262;6.830;2023-12-04T02:06:20;1.30;99.90
67870;DHT22;54673;52.262;6.830;2023-12-04T02:08:47;1.30;99.90
67870;DHT22;54673;52.262;6.830;2023-12-04T02:11:13;1.30;99.90
67870;DHT22;54673;52.262;6.830;2023-12-04T02:13:38;1.20;99.90
67870;DHT22;54673;52.262;6.830;2023-12-04T02:16:07;1.20;99.90
67870;DHT22;54673;52.262;6.830;2023-12-04T02:18:35;1.30;99.90
67870;DHT22;54673;52.262;6.830;2023-12-04T02:21:01;1.30;99.90
67870;DHT22;54673;52.262;6.830;2023-12-04T02:23:27;1.30;99.90
67870;DHT22;54673;52.262;6.830;2023-12-04T02:25:58;1.20;99.90
67870;DHT22;54673;52.262;6.830;2023-12-04T02:28:26;1.30;99.90
67870;DHT22;54673;52.262;6.830;2023-12-04T02:30:53;1.20;99.90
67870;DHT22;54673;52.262;6.830;2023-12-04T02:33:22;1.30;99.90
67870;DHT22;54673;52.262;6.830;2023-12-04T02:35:50;1.20;99.90
67870;DHT22;54673;52.262;6.830;2023-12-04T02:38:16;1.20;99.90
67870;DHT22;54673;52.262;6.830;2023-12-04T02:40:42;1.20;99.90
67870;DHT22;54673;52.262;6.830;2023-12-04T02:43:08;1.20;99.90
67870;DHT22;54673;52.262;6.830;2023-12-04T02:45:33;1.30;99.90
67870;DHT22;54673;52.262;6.830;2023-12-04T02:47:59;1.30;99.90
67870;DHT22;54673;52.262;6.830;2023-12-04T02:50:24;1.30;99.90
67870;DHT22;54673;52.262;6.830;2023-12-04T02:52:50;1.20;99.90
67870;DHT22;54673;52.262;6.830;2023-12-04T02:55:15;1.30;99.90
67870;DHT22;54673;52.262;6.830;2023-12-04T02:57:41;1.20;99.90
67870;DHT22;54673;52.262;6.830;2023-12-04T03:00:07;1.20;99.90
67870;DHT22;54673;52.262;6.830;2023-12-04T03:02:33;1.30;99.90
67870;DHT22;54673;52.262;6.830;2023-12-04T03:04:58;1.30;99.90
67870;DHT22;54673;52.262;6.830;2023-12-04T03:07:24;1.30;99.90
67870;DHT22;54673;52.262;6.830;2023-12-04T03:09:50;1.30;99.90
67870;DHT22;54673;52.262;6.830;2023-12-04T03:12:16;1.20;99.90
67870;DHT22;54673;52.262;6.830;2023-12-04T03:14:42;1.20;99.90
67870;DHT22;54673;52.262;6.830;2023-12-04T03:17:08;1.30;99.90
67870;DHT22;54673;52.262;6.830;2023-12-04T03:19:33;1.30;99.90
67870;DHT22;54673;52.262;6.830;2023-12-04T03:22:00;1.30;99.90
67870;DHT22;54673;52.262;6.830;2023-12-04T03:24:26;1.30;99.90
67870;DHT22;54673;52.262;6.830;2023-12-04T03:26:51;1.30;99.90
67870;DHT22;54673;52.262;6.830;2023-12-04T03:29:17;1.20;99.90
67870;DHT22;54673;52.262;6.830;2023-12-04T03:31:42;1.20;99.90
67870;DHT22;54673;52.262;6.830;2023-12-04T03:34:08;1.20;99.90
67870;DHT22;54673;52.262;6.830;2023-12-04T03:36:33;1.20;99.90
67870;DHT22;54673;52.262;6.830;2023-12-04T03:38:59;1.30;99.90
67870;DHT22;54673;52.262;6.830;2023-12-04T03:41:24;1.30;99.90
67870;DHT22;54673;52.262;6.830;2023-12-04T03:43:50;1.20;99.90
67870;DHT22;54673;52.262;6.830;2023-12-04T03:46:16;1.20;99.90
67870;DHT22;54673;52.262;6.830;2023-12-04T03:48:41;1.20;99.90
67870;DHT22;54673;52.262;6.830;2023-12-04T03:51:07;1.20;99.90
67870;DHT22;54673;52.262;6.830;2023-12-04T03:53:33;1.20;99.90
67870;DHT22;54673;52.262;6.830;2023-12-04T03:55:59;1.20;99.90
67870;DHT22;54673;52.262;6.830;2023-12-04T03:58:25;1.20;99.90
67870;DHT22;54673;52.262;6.830;2023-12-04T04:00:50;1.20;99.90
67870;DHT22;54673;52.262;6.830;2023-12-04T04:03:16;1.20;99.90
67870;DHT22;54673;52.262;6.830;2023-12-04T04:05:41;1.30;99.90
67870;DHT22;54673;52.262;6.830;2023-12-04T04:08:07;1.20;99.90
67870;DHT22;54673;52.262;6.830;2023-12-04T04:10:33;1.20;99.90
67870;DHT22;54673;52.262;6.830;2023-12-04T04:12:59;1.20;99.90
67870;DHT22;54673;52.262;6.830;2023-12-04T04:15:25;1.20;99.90
67870;DHT22;54673;52.262;6.830;2023-12-04T04:17:51;1.20;99.90
67870;DHT22;54673;52.262;6.830;2023-12-04T04:20:17;1.20;99.90
67870;DHT22;54673;52.262;6.830;2023-12-04T04:22:42;1.30;99.90
67870;DHT22;54673;52.262;6.830;2023-12-04T04:25:09;1.20;99.90
67870;DHT22;54673;52.262;6.830;2023-12-04T04:27:35;1.20;99.90
67870;DHT22;54673;52.262;6.830;2023-12-04T04:30:01;1.20;99.90
67870;DHT22;54673;52.262;6.830;2023-12-04T04:32:27;1.30;99.90
67870;DHT22;54673;52.262;6.830;2023-12-04T04:34:52;1.30;99.90
67870;DHT22;54673;52.262;6.830;2023-12-04T04:37:19;1.20;99.90
67870;DHT22;54673;52.262;6.830;2023-12-04T04:39:45;1.20;99.90
67870;DHT22;54673;52.262;6.830;2023-12-04T04:42:11;1.20;99.90
67870;DHT22;54673;52.262;6.830;2023-12-04T04:44:36;1.20;99.90
67870;DHT22;54673;52.262;6.830;2023-12-04T04:47:02;1.20;99.90
67870;DHT22;54673;52.262;6.830;2023-12-04T04:49:27;1.20;99.90
67870;DHT22;54673;52.262;6.830;2023-12-04T04:51:53;1.30;99.90
67870;DHT22;54673;52.262;6.830;2023-12-04T04:54:18;1.30;99.90
67870;DHT22;54673;52.262;6.830;2023-12-04T04:56:44;1.20;99.90
67870;DHT22;54673;52.262;6.830;2023-12-04T04:59:10;1.20;99.90
67870;DHT22;54673;52.262;6.830;2023-12-04T05:01:35;1.30;99.90
67870;DHT22;54673;52.262;6.830;2023-12-04T05:04:02;2.70;99.90
67870;DHT22;54673;52.262;6.830;2023-12-04T05:06:28;1.20;99.90
67870;DHT22;54673;52.262;6.830;2023-12-04T05:08:53;1.20;99.90
67870;DHT22;54673;52.262;6.830;2023-12-04T05:11:19;1.20;99.90
67870;DHT22;54673;52.262;6.830;2023-12-04T05:13:45;1.20;99.90
67870;DHT22;54673;52.262;6.830;2023-12-04T05:16:11;1.20;99.90
67870;DHT22;54673;52.262;6.830;2023-12-04T05:18:38;1.20;99.90
67870;DHT22;54673;52.262;6.830;2023-12-04T05:21:11;1.30;99.90
67870;DHT22;54673;52.262;6.830;2023-12-04T05:23:37;1.20;99.90
67870;DHT22;54673;52.262;6.830;2023-12-04T05:26:04;1.20;99.90
67870;DHT22;54673;52.262;6.830;2023-12-04T05:28:30;1.30;99.90
67870;DHT22;54673;52.262;6.830;2023-12-04T05:30:55;1.20;99.90
67870;DHT22;54673;52.262;6.830;2023-12-04T05:33:21;1.20;99.90
67870;DHT22;54673;52.262;6.830;2023-12-04T05:35:48;1.20;99.90
67870;DHT22;54673;52.262;6.830;2023-12-04T05:38:14;1.20;99.90
67870;DHT22;54673;52.262;6.830;2023-12-04T05:40:39;1.20;99.90
67870;DHT22;54673;52.262;6.830;2023-12-04T05:43:05;1.20;99.90
67870;DHT22;54673;52.262;6.830;2023-12-04T05:45:30;1.20;99.90
67870;DHT22;54673;52.262;6.830;2023-12-04T05:47:56;1.20;99.90
67870;DHT22;54673;52.262;6.830;2023-12-04T05:50:22;1.20;99.90
67870;DHT22;54673;52.262;6.830;2023-12-04T05:52:47;1.20;99.90
67870;DHT22;54673;52.262;6.830;2023-12-04T05:55:13;1.20;99.90
67870;DHT22;54673;52.262;6.830;2023-12-04T05:57:39;1.20;99.90
67870;DHT22;54673;52.262;6.830;2023-12-04T06:00:06;1.20;99.90
67870;DHT22;54673;52.262;6.830;2023-12-04T06:02:44;1.20;99.90
67870;DHT22;54673;52.262;6.830;2023-12-04T06:05:10;1.20;99.90
67870;DHT22;54673;52.262;6.830;2023-12-04T06:07:36;1.20;99.90
67870;DHT22;54673;52.262;6.830;2023-12-04T06:10:03;1.20;99.90
67870;DHT22;54673;52.262;6.830;2023-12-04T06:12:30;1.10;99.90
67870;DHT22;54673;52.262;6.830;2023-12-04T06:14:56;1.10;99.90
67870;DHT22;54673;52.262;6.830;2023-12-04T06:17:21;1.20;99.90
67870;DHT22;54673;52.262;6.830;2023-12-04T06:19:47;1.10;99.90
67870;DHT22;54673;52.262;6.830;2023-12-04T06:22:13;1.10;99.90
67870;DHT22;54673;52.262;6.830;2023-12-04T06:24:38;1.20;99.90
67870;DHT22;54673;52.262;6.830;2023-12-04T06:27:04;1.10;99.90
67870;DHT22;54673;52.262;6.830;2023-12-04T06:29:31;1.10;99.90
67870;DHT22;54673;52.262;6.830;2023-12-04T06:31:58;1.10;99.90
67870;DHT22;54673;52.262;6.830;2023-12-04T06:34:24;1.10;99.90
67870;DHT22;54673;52.262;6.830;2023-12-04T06:36:50;1.10;99.90
67870;DHT22;54673;52.262;6.830;2023-12-04T06:39:16;1.10;99.90
67870;DHT22;54673;52.262;6.830;2023-12-04T06:41:43;1.10;99.90
67870;DHT22;54673;52.262;6.830;2023-12-04T06:44:10;1.10;99.90
67870;DHT22;54673;52.262;6.830;2023-12-04T06:46:38;1.10;99.90
67870;DHT22;54673;52.262;6.830;2023-12-04T06:49:05;1.10;99.90
67870;DHT22;54673;52.262;6.830;2023-12-04T06:51:32;1.10;99.90
67870;DHT22;54673;52.262;6.830;2023-12-04T06:53:58;1.10;99.90
67870;DHT22;54673;52.262;6.830;2023-12-04T06:56:23;1.10;99.90
67870;DHT22;54673;52.262;6.830;2023-12-04T06:58:49;1.10;99.90
67870;DHT22;54673;52.262;6.830;2023-12-04T07:01:15;1.10;99.90
67870;DHT22;54673;52.262;6.830;2023-12-04T07:03:40;1.10;99.90
67870;DHT22;54673;52.262;6.830;2023-12-04T07:06:06;1.10;99.90
67870;DHT22;54673;52.262;6.830;2023-12-04T07:08:32;1.10;99.90
67870;DHT22;54673;52.262;6.830;2023-12-04T07:10:57;1.10;99.90
67870;DHT22;54673;52.262;6.830;2023-12-04T07:13:23;1.10;99.90
67870;DHT22;54673;52.262;6.830;2023-12-04T07:15:49;1.10;99.90
67870;DHT22;54673;52.262;6.830;2023-12-04T07:18:14;1.10;99.90
67870;DHT22;54673;52.262;6.830;2023-12-04T07:20:40;1.10;99.90
67870;DHT22;54673;52.262;6.830;2023-12-04T07:23:05;1.10;99.90
67870;DHT22;54673;52.262;6.830;2023-12-04T07:25:31;1.10;99.90
67870;DHT22;54673;52.262;6.830;2023-12-04T07:27:56;1.10;99.90
67870;DHT22;54673;52.262;6.830;2023-12-04T07:30:25;1.10;99.90
67870;DHT22;54673;52.262;6.830;2023-12-04T07:32:51;1.10;99.90
67870;DHT22;54673;52.262;6.830;2023-12-04T07:35:17;1.10;99.90
67870;DHT22;54673;52.262;6.830;2023-12-04T07:37:43;1.10;99.90
67870;DHT22;54673;52.262;6.830;2023-12-04T07:40:09;1.10;99.90
67870;DHT22;54673;52.262;6.830;2023-12-04T07:42:36;1.10;99.90
67870;DHT22;54673;52.262;6.830;2023-12-04T07:45:02;1.10;99.90
67870;DHT22;54673;52.262;6.830;2023-12-04T07:47:28;1.10;99.90
67870;DHT22;54673;52.262;6.830;2023-12-04T07:49:53;1.10;99.90
67870;DHT22;54673;52.262;6.830;2023-12-04T07:52:19;1.10;99.90
67870;DHT22;54673;52.262;6.830;2023-12-04T07:54:44;1.00;99.90
67870;DHT22;54673;52.262;6.830;2023-12-04T07:57:10;1.10;99.90
67870;DHT22;54673;52.262;6.830;2023-12-04T07:59:35;1.10;99.90
67870;DHT22;54673;52.262;6.830;2023-12-04T08:02:01;1.10;99.90
67870;DHT22;54673;52.262;6.830;2023-12-04T08:04:27;1.10;99.90
67870;DHT22;54673;52.262;6.830;2023-12-04T08:06:53;1.10;99.90
67870;DHT22;54673;52.262;6.830;2023-12-04T08:09:18;1.10;99.90
67870;DHT22;54673;52.262;6.830;2023-12-04T08:11:44;1.20;99.90
67870;DHT22;54673;52.262;6.830;2023-12-04T08:14:09;1.20;99.90
67870;DHT22;54673;52.262;6.830;2023-12-04T08:16:35;1.20;99.90
67870;DHT22;54673;52.262;6.830;2023-12-04T08:19:00;1.20;99.90
67870;DHT22;54673;52.262;6.830;2023-12-04T08:21:26;1.20;99.90
67870;DHT22;54673;52.262;6.830;2023-12-04T08:23:51;1.20;99.90
67870;DHT22;54673;52.262;6.830;2023-12-04T08:26:24;1.20;99.90
67870;DHT22;54673;52.262;6.830;2023-12-04T08:28:50;1.20;99.90
67870;DHT22;54673;52.262;6.830;2023-12-04T08:31:16;1.30;99.90
67870;DHT22;54673;52.262;6.830;2023-12-04T08:33:43;1.30;99.90
67870;DHT22;54673;52.262;6.830;2023-12-04T08:36:10;1.20;99.90
67870;DHT22;54673;52.262;6.830;2023-12-04T08:38:35;1.30;99.90
67870;DHT22;54673;52.262;6.830;2023-12-04T08:41:01;1.30;99.90
67870;DHT22;54673;52.262;6.830;2023-12-04T08:43:27;1.20;99.90
67870;DHT22;54673;52.262;6.830;2023-12-04T08:45:54;1.30;99.90
67870;DHT22;54673;52.262;6.830;2023-12-04T08:48:19;1.20;99.90
67870;DHT22;54673;52.262;6.830;2023-12-04T08:50:45;1.20;99.90
67870;DHT22;54673;52.262;6.830;2023-12-04T08:53:11;1.20;99.90
67870;DHT22;54673;52.262;6.830;2023-12-04T08:55:37;1.20;99.90
67870;DHT22;54673;52.262;6.830;2023-12-04T08:58:03;1.20;99.90
67870;DHT22;54673;52.262;6.830;2023-12-04T09:00:29;1.20;99.90
67870;DHT22;54673;52.262;6.830;2023-12-04T09:02:55;1.20;99.90
67870;DHT22;54673;52.262;6.830;2023-12-04T09:05:21;1.20;99.90
67870;DHT22;54673;52.262;6.830;2023-12-04T09:07:46;1.20;99.90
67870;DHT22;54673;52.262;6.830;2023-12-04T09:10:12;1.20;99.90
67870;DHT22;54673;52.262;6.830;2023-12-04T09:12:37;1.30;99.90
67870;DHT22;54673;52.262;6.830;2023-12-04T09:15:04;1.20;99.90
67870;DHT22;54673;52.262;6.830;2023-12-04T09:17:30;1.30;99.90
67870;DHT22;54673;52.262;6.830;2023-12-04T09:19:56;1.20;99.90
67870;DHT22;54673;52.262;6.830;2023-12-04T09:22:21;1.20;99.90
67870;DHT22;54673;52.262;6.830;2023-12-04T09:24:47;1.20;99.90
67870;DHT22;54673;52.262;6.830;2023-12-04T09:27:12;1.20;99.90
67870;DHT22;54673;52.262;6.830;2023-12-04T09:29:38;1.30;99.90
67870;DHT22;54673;52.262;6.830;2023-12-04T09:32:03;1.30;99.90
67870;DHT22;54673;52.262;6.830;2023-12-04T09:34:29;1.30;99.90
67870;DHT22;54673;52.262;6.830;2023-12-04T09:36:55;1.30;99.90
67870;DHT22;54673;52.262;6.830;2023-12-04T09:39:20;1.20;99.90
67870;DHT22;54673;52.262;6.830;2023-12-04T09:41:47;1.30;99.90
67870;DHT22;54673;52.262;6.830;2023-12-04T09:44:13;1.30;99.90
67870;DHT22;54673;52.262;6.830;2023-12-04T09:46:40;1.30;99.90
67870;DHT22;54673;52.262;6.830;2023-12-04T09:49:06;1.30;99.90
67870;DHT22;54673;52.262;6.830;2023-12-04T09:51:32;1.30;99.90
67870;DHT22;54673;52.262;6.830;2023-12-04T09:54:02;1.30;99.90
67870;DHT22;54673;52.262;6.830;2023-12-04T09:56:29;1.80;99.90
67870;DHT22;54673;52.262;6.830;2023-12-04T09:58:58;1.30;99.90
67870;DHT22;54673;52.262;6.830;2023-12-04T10:01:31;1.40;99.90
67870;DHT22;54673;52.262;6.830;2023-12-04T10:03:58;1.30;99.90
67870;DHT22;54673;52.262;6.830;2023-12-04T10:06:27;1.30;99.90
67870;DHT22;54673;52.262;6.830;2023-12-04T10:08:55;1.30;99.90
67870;DHT22;54673;52.262;6.830;2023-12-04T10:11:22;1.40;99.90
67870;DHT22;54673;52.262;6.830;2023-12-04T10:13:48;1.30;99.90
67870;DHT22;54673;52.262;6.830;2023-12-04T10:16:14;1.40;99.90
67870;DHT22;54673;52.262;6.830;2023-12-04T10:18:39;2.10;99.90
67870;DHT22;54673;52.262;6.830;2023-12-04T10:21:05;1.40;99.90
67870;DHT22;54673;52.262;6.830;2023-12-04T10:23:41;1.60;99.90
67870;DHT22;54673;52.262;6.830;2023-12-04T10:26:08;1.60;99.90
67870;DHT22;54673;52.262;6.830;2023-12-04T10:28:34;1.50;99.90
67870;DHT22;54673;52.262;6.830;2023-12-04T10:31:00;2.40;99.90
67870;DHT22;54673;52.262;6.830;2023-12-04T10:33:28;1.50;99.90
67870;DHT22;54673;52.262;6.830;2023-12-04T10:35:54;1.50;99.90
67870;DHT22;54673;52.262;6.830;2023-12-04T10:38:23;1.50;99.90
67870;DHT22;54673;52.262;6.830;2023-12-04T10:40:48;1.50;99.90
67870;DHT22;54673;52.262;6.830;2023-12-04T10:43:19;1.40;99.90
67870;DHT22;54673;52.262;6.830;2023-12-04T10:45:46;1.50;99.90
67870;DHT22;54673;52.262;6.830;2023-12-04T10:48:13;1.40;99.90
67870;DHT22;54673;52.262;6.830;2023-12-04T10:50:42;1.50;99.90
67870;DHT22;54673;52.262;6.830;2023-12-04T10:53:12;1.50;99.90
67870;DHT22;54673;52.262;6.830;2023-12-04T10:55:39;1.50;99.90
67870;DHT22;54673;52.262;6.830;2023-12-04T10:58:10;1.90;99.90
67870;DHT22;54673;52.262;6.830;2023-12-04T11:00:47;1.50;99.90
67870;DHT22;54673;52.262;6.830;2023-12-04T11:03:52;1.50;99.90
67870;DHT22;54673;52.262;6.830;2023-12-04T11:06:11;1.60;99.90
67870;DHT22;54673;52.262;6.830;2023-12-04T11:08:42;2.30;99.90
67870;DHT22;54673;52.262;6.830;2023-12-04T11:11:31;1.50;99.90
67870;DHT22;54673;52.262;6.830;2023-12-04T11:14:01;0.70;99.90
67870;DHT22;54673;52.262;6.830;2023-12-04T11:16:49;1.60;99.90
67870;DHT22;54673;52.262;6.830;2023-12-04T11:19:35;1.60;99.90
67870;DHT22;54673;52.262;6.830;2023-12-04T11:22:02;1.60;99.90
67870;DHT22;54673;52.262;6.830;2023-12-04T11:24:28;1.60;99.90
67870;DHT22;54673;52.262;6.830;2023-12-04T11:26:54;1.60;99.90
67870;DHT22;54673;52.262;6.830;2023-12-04T11:29:21;1.60;99.90
67870;DHT22;54673;52.262;6.830;2023-12-04T11:31:47;1.60;99.90
67870;DHT22;54673;52.262;6.830;2023-12-04T11:34:12;1.60;99.90
67870;DHT22;54673;52.262;6.830;2023-12-04T11:36:38;1.60;99.90
67870;DHT22;54673;52.262;6.830;2023-12-04T11:39:09;1.70;99.90
67870;DHT22;54673;52.262;6.830;2023-12-04T11:41:40;2.40;99.90
67870;DHT22;54673;52.262;6.830;2023-12-04T11:44:12;1.70;99.90
67870;DHT22;54673;52.262;6.830;2023-12-04T11:46:39;2.30;99.90
67870;DHT22;54673;52.262;6.830;2023-12-04T11:49:27;1.70;99.90
67870;DHT22;54673;52.262;6.830;2023-12-04T11:51:55;1.70;99.90
67870;DHT22;54673;52.262;6.830;2023-12-04T11:54:22;1.70;99.90
67870;DHT22;54673;52.262;6.830;2023-12-04T11:59:22;1.70;99.90
67870;DHT22;54673;52.262;6.830;2023-12-04T12:01:50;1.70;99.90
67870;DHT22;54673;52.262;6.830;2023-12-04T12:04:17;3.10;99.90
67870;DHT22;54673;52.262;6.830;2023-12-04T12:06:44;1.70;99.90
67870;DHT22;54673;52.262;6.830;2023-12-04T12:09:10;2.30;99.90
67870;DHT22;54673;52.262;6.830;2023-12-04T12:11:36;1.60;99.90
67870;DHT22;54673;52.262;6.830;2023-12-04T12:14:02;1.70;99.90
67870;DHT22;54673;52.262;6.830;2023-12-04T12:16:31;3.10;99.90
67870;DHT22;54673;52.262;6.830;2023-12-04T12:18:57;2.80;99.90
67870;DHT22;54673;52.262;6.830;2023-12-04T12:21:23;2.70;99.90
67870;DHT22;54673;52.262;6.830;2023-12-04T12:23:50;2.80;99.90
67870;DHT22;54673;52.262;6.830;2023-12-04T12:26:16;1.40;99.90
67870;DHT22;54673;52.262;6.830;2023-12-04T12:28:41;2.50;99.90
67870;DHT22;54673;52.262;6.830;2023-12-04T12:31:07;1.80;99.90
67870;DHT22;54673;52.262;6.830;2023-12-04T12:33:33;1.70;99.90
67870;DHT22;54673;52.262;6.830;2023-12-04T12:36:00;0.10;99.90
67870;DHT22;54673;52.262;6.830;2023-12-04T12:38:26;1.60;99.90
67870;DHT22;54673;52.262;6.830;2023-12-04T12:40:51;1.60;99.90
67870;DHT22;54673;52.262;6.830;2023-12-04T12:43:20;1.80;99.90
67870;DHT22;54673;52.262;6.830;2023-12-04T12:45:48;1.80;99.90
67870;DHT22;54673;52.262;6.830;2023-12-04T12:48:15;2.80;99.90
67870;DHT22;54673;52.262;6.830;2023-12-04T12:50:42;2.30;99.90
67870;DHT22;54673;52.262;6.830;2023-12-04T12:53:10;2.50;99.90
67870;DHT22;54673;52.262;6.830;2023-12-04T12:55:43;2.60;99.90
67870;DHT22;54673;52.262;6.830;2023-12-04T12:58:09;1.90;99.90
67870;DHT22;54673;52.262;6.830;2023-12-04T13:00:36;3.30;99.90
67870;DHT22;54673;52.262;6.830;2023-12-04T13:03:02;1.60;99.90
67870;DHT22;54673;52.262;6.830;2023-12-04T13:05:27;1.90;99.90
67870;DHT22;54673;52.262;6.830;2023-12-04T13:07:54;2.00;99.90
67870;DHT22;54673;52.262;6.830;2023-12-04T13:10:21;2.00;99.90
67870;DHT22;54673;52.262;6.830;2023-12-04T13:12:46;2.00;99.90
67870;DHT22;54673;52.262;6.830;2023-12-04T13:15:17;2.70;99.90
67870;DHT22;54673;52.262;6.830;2023-12-04T13:17:43;2.60;99.90
67870;DHT22;54673;52.262;6.830;2023-12-04T13:20:09;2.80;99.90
67870;DHT22;54673;52.262;6.830;2023-12-04T13:22:38;2.20;99.90
67870;DHT22;54673;52.262;6.830;2023-12-04T13:25:04;1.80;99.90
67870;DHT22;54673;52.262;6.830;2023-12-04T13:27:33;2.10;99.90
67870;DHT22;54673;52.262;6.830;2023-12-04T13:29:58;2.10;99.90
67870;DHT22;54673;52.262;6.830;2023-12-04T13:32:24;3.20;99.90
67870;DHT22;54673;52.262;6.830;2023-12-04T13:34:50;2.90;99.90
67870;DHT22;54673;52.262;6.830;2023-12-04T13:37:15;2.10;99.90
67870;DHT22;54673;52.262;6.830;2023-12-04T13:39:41;2.10;99.90
67870;DHT22;54673;52.262;6.830;2023-12-04T13:42:14;2.10;99.90
67870;DHT22;54673;52.262;6.830;2023-12-04T13:44:59;2.10;99.90
67870;DHT22;54673;52.262;6.830;2023-12-04T13:47:25;2.20;99.90
67870;DHT22;54673;52.262;6.830;2023-12-04T13:49:50;2.10;99.90
67870;DHT22;54673;52.262;6.830;2023-12-04T13:52:16;2.10;99.90
67870;DHT22;54673;52.262;6.830;2023-12-04T13:54:45;2.20;99.90
67870;DHT22;54673;52.262;6.830;2023-12-04T13:57:13;2.20;99.90
67870;DHT22;54673;52.262;6.830;2023-12-04T14:00:02;2.20;99.90
67870;DHT22;54673;52.262;6.830;2023-12-04T14:02:29;2.20;99.90
67870;DHT22;54673;52.262;6.830;2023-12-04T14:04:55;2.20;99.90
67870;DHT22;54673;52.262;6.830;2023-12-04T14:07:20;3.90;99.90
67870;DHT22;54673;52.262;6.830;2023-12-04T14:09:46;2.20;99.90
67870;DHT22;54673;52.262;6.830;2023-12-04T14:12:12;2.20;99.90
67870;DHT22;54673;52.262;6.830;2023-12-04T14:14:39;2.20;99.90
67870;DHT22;54673;52.262;6.830;2023-12-04T14:17:05;3.30;99.90
67870;DHT22;54673;52.262;6.830;2023-12-04T14:19:32;2.20;99.90
67870;DHT22;54673;52.262;6.830;2023-12-04T14:21:58;2.20;99.90
67870;DHT22;54673;52.262;6.830;2023-12-04T14:24:24;2.20;99.90
67870;DHT22;54673;52.262;6.830;2023-12-04T14:26:51;2.20;99.90
67870;DHT22;54673;52.262;6.830;2023-12-04T14:29:19;2.20;99.90
67870;DHT22;54673;52.262;6.830;2023-12-04T14:31:44;2.20;99.90
67870;DHT22;54673;52.262;6.830;2023-12-04T14:34:10;2.50;99.90
67870;DHT22;54673;52.262;6.830;2023-12-04T14:36:35;2.30;99.90
67870;DHT22;54673;52.262;6.830;2023-12-04T14:39:02;2.20;99.90
67870;DHT22;54673;52.262;6.830;2023-12-04T14:41:28;2.20;99.90
67870;DHT22;54673;52.262;6.830;2023-12-04T14:43:54;2.30;99.90
67870;DHT22;54673;52.262;6.830;2023-12-04T14:46:19;2.20;99.90
67870;DHT22;54673;52.262;6.830;2023-12-04T14:48:46;2.30;99.90
67870;DHT22;54673;52.262;6.830;2023-12-04T14:51:11;2.20;99.90
67870;DHT22;54673;52.262;6.830;2023-12-04T14:53:40;2.20;99.90
67870;DHT22;54673;52.262;6.830;2023-12-04T14:56:17;2.30;99.90
67870;DHT22;54673;52.262;6.830;2023-12-04T14:59:01;2.20;99.90
67870;DHT22;54673;52.262;6.830;2023-12-04T15:01:46;2.20;99.90
67870;DHT22;54673;52.262;6.830;2023-12-04T15:04:40;2.20;99.90
67870;DHT22;54673;52.262;6.830;2023-12-04T15:07:12;2.40;99.90
67870;DHT22;54673;52.262;6.830;2023-12-04T15:10:07;2.30;99.90
67870;DHT22;54673;52.262;6.830;2023-12-04T15:12:51;2.30;99.90
67870;DHT22;54673;52.262;6.830;2023-12-04T15:15:26;2.20;99.90
67870;DHT22;54673;52.262;6.830;2023-12-04T15:18:10;2.20;99.90
67870;DHT22;54673;52.262;6.830;2023-12-04T15:20:56;3.10;99.90
67870;DHT22;54673;52.262;6.830;2023-12-04T15:23:21;2.20;99.90
67870;DHT22;54673;52.262;6.830;2023-12-04T15:25:47;2.20;99.90
67870;DHT22;54673;52.262;6.830;2023-12-04T15:28:13;2.20;99.90
67870;DHT22;54673;52.262;6.830;2023-12-04T15:30:42;2.20;99.90
67870;DHT22;54673;52.262;6.830;2023-12-04T15:33:08;2.20;99.90
67870;DHT22;54673;52.262;6.830;2023-12-04T15:35:34;2.20;99.90
67870;DHT22;54673;52.262;6.830;2023-12-04T15:38:02;2.20;99.90
67870;DHT22;54673;52.262;6.830;2023-12-04T15:40:27;2.20;99.90
67870;DHT22;54673;52.262;6.830;2023-12-04T15:42:53;2.20;99.90
67870;DHT22;54673;52.262;6.830;2023-12-04T15:45:19;2.20;99.90